Time;durP1;ratioP1;P1;durP2;ratioP2;P2;SDS_P1;SDS_P2;PMS_P1;PMS_P2;Temp;Humidity;BMP_temperature;BMP_pressure;BME280_temperature;BME280_humidity;BME280_pressure;Samples;Min_cycle;Max_cycle;Signal;HPM_P1;HPM_P2
2022/10/30 00:02:04;;;;;;;10.20;2.10;;;;;;;10.81;83.19;100120.11;105352;1281;1002399;-75
2022/10/30 00:04:51;;;;;;;7.90;2.20;;;;;;;10.79;83.33;100124.52;106122;1281;71651;-75
2022/10/30 00:07:39;;;;;;;10.80;2.30;;;;;;;10.79;83.31;100119.94;106149;1282;67103;-74
2022/10/30 00:10:27;;;;;;;8.70;2.10;;;;;;;10.78;83.58;100116.09;106126;1288;73907;-73
2022/10/30 00:13:16;;;;;;;9.50;2.00;;;;;;;10.77;83.71;100124.98;106114;1282;59314;-74
2022/10/30 00:16:07;;;;;;;8.70;2.20;;;;;;;10.77;83.55;100137.98;106124;1281;58914;-75
2022/10/30 00:18:55;;;;;;;11.20;2.20;;;;;;;10.77;83.98;100134.58;106078;1288;73892;-74
2022/10/30 00:21:43;;;;;;;10.50;2.00;;;;;;;10.76;83.98;100117.08;106138;1289;67632;-75
2022/10/30 00:24:31;;;;;;;10.50;2.20;;;;;;;10.75;84.00;100104.78;106141;1289;71074;-75
2022/10/30 00:27:19;;;;;;;8.40;1.70;;;;;;;10.72;84.41;100113.48;106128;1288;57597;-75
2022/10/30 00:30:08;;;;;;;7.10;1.70;;;;;;;10.71;84.56;100126.20;106014;1288;59151;-77
2022/10/30 00:32:56;;;;;;;10.50;1.90;;;;;;;10.70;84.62;100123.98;106124;1289;73827;-75
2022/10/30 00:35:48;;;;;;;8.80;1.80;;;;;;;10.70;84.38;100118.77;105935;1289;67743;-75
2022/10/30 00:38:36;;;;;;;9.50;1.90;;;;;;;10.70;84.61;100118.98;106150;1288;72341;-74
2022/10/30 00:41:24;;;;;;;9.50;2.00;;;;;;;10.71;84.76;100122.47;106047;1292;58772;-75
2022/10/30 00:44:39;;;;;;;8.10;1.80;;;;;;;10.71;84.72;100124.55;106135;1289;60139;-74
2022/10/30 00:47:36;;;;;;;10.10;1.90;;;;;;;10.69;85.03;100130.63;106106;1288;74399;-74
2022/10/30 00:50:35;;;;;;;8.30;2.10;;;;;;;10.66;85.08;100123.52;106033;1288;65955;-75
2022/10/30 00:53:24;;;;;;;9.50;2.00;;;;;;;10.64;85.43;100131.31;106000;1292;73708;-73
2022/10/30 00:56:14;;;;;;;8.10;1.60;;;;;;;10.63;85.48;100136.58;106123;1287;57890;-74
2022/10/30 00:59:08;;;;;;;10.50;2.10;;;;;;;10.63;85.52;100141.35;106131;1282;60141;-75
2022/10/30 01:01:56;;;;;;;9.20;2.00;;;;;;;10.62;85.66;100139.11;105980;1284;73895;-73
2022/10/30 01:04:46;;;;;;;8.90;1.90;;;;;;;10.63;85.67;100139.61;106124;1289;68587;-74
2022/10/30 01:07:34;;;;;;;8.30;1.90;;;;;;;10.63;85.89;100139.61;106118;1287;72304;-74
2022/10/30 01:10:23;;;;;;;7.50;1.50;;;;;;;10.62;86.04;100140.75;106161;1284;57221;-75
2022/10/30 01:13:11;;;;;;;8.30;1.60;;;;;;;10.62;86.15;100141.60;106267;1289;58668;-74
2022/10/30 01:16:06;;;;;;;9.00;1.90;;;;;;;10.61;85.92;100144.48;106168;1280;71327;-74
2022/10/30 01:18:53;;;;;;;7.60;1.70;;;;;;;10.60;86.28;100145.66;106189;1284;67571;-74
2022/10/30 01:21:56;;;;;;;6.00;1.70;;;;;;;10.57;86.38;100143.08;106114;1284;72984;-74
2022/10/30 01:25:32;;;;;;;11.50;1.80;;;;;;;10.54;86.57;100140.99;106053;1284;59277;-74
2022/10/30 01:28:46;;;;;;;11.30;2.10;;;;;;;10.51;86.75;100136.95;106027;1285;59176;-74
2022/10/30 01:31:40;;;;;;;10.30;2.10;;;;;;;10.48;86.97;100124.73;106134;1289;72881;-74
2022/10/30 01:35:03;;;;;;;9.40;1.80;;;;;;;10.46;87.16;100128.80;106032;1289;65333;-75
2022/10/30 01:38:03;;;;;;;8.50;1.80;;;;;;;10.45;87.48;100125.88;106016;1288;73695;-74
2022/10/30 01:40:52;;;;;;;10.40;1.90;;;;;;;10.43;87.79;100125.16;106048;1289;57224;-73
2022/10/30 01:43:41;;;;;;;9.40;1.70;;;;;;;10.41;88.02;100124.22;106104;1281;61254;-74
2022/10/30 01:46:57;;;;;;;9.60;2.20;;;;;;;10.38;88.29;100125.17;106030;1289;72771;-74
2022/10/30 01:50:06;;;;;;;10.70;2.20;;;;;;;10.35;88.56;100127.33;106128;1281;67596;-74
2022/10/30 01:53:50;;;;;;;8.50;2.10;;;;;;;10.32;88.69;100121.70;106020;1288;73437;-74
2022/10/30 01:56:56;;;;;;;7.40;1.70;;;;;;;10.29;89.12;100134.34;106002;1289;58738;-74
2022/10/30 02:00:09;;;;;;;9.10;1.90;;;;;;;10.27;89.21;100138.73;105940;1292;61734;-75
2022/10/30 02:03:00;;;;;;;9.70;1.90;;;;;;;10.26;89.14;100133.33;106033;1292;74246;-74
2022/10/30 02:05:52;;;;;;;9.50;1.90;;;;;;;10.25;89.39;100131.45;105983;1289;67845;-74
2022/10/30 02:08:40;;;;;;;7.30;1.90;;;;;;;10.22;89.40;100129.48;106019;1289;73681;-76
2022/10/30 02:11:32;;;;;;;9.70;1.90;;;;;;;10.20;89.60;100129.13;106082;1288;59093;-75
2022/10/30 02:14:30;;;;;;;11.30;2.50;;;;;;;10.16;89.83;100119.67;105989;1289;59054;-75
2022/10/30 02:17:19;;;;;;;10.20;2.10;;;;;;;10.12;90.06;100122.81;106028;1281;73987;-75
2022/10/30 02:20:23;;;;;;;11.00;2.40;;;;;;;10.09;90.09;100131.41;105966;1290;68578;-74
2022/10/30 02:23:17;;;;;;;10.60;2.00;;;;;;;10.03;90.22;100143.35;105982;1276;72679;-76
2022/10/30 02:26:05;;;;;;;9.30;2.50;;;;;;;9.97;90.38;100137.91;106015;1291;59415;-75
2022/10/30 02:28:53;;;;;;;11.30;2.20;;;;;;;9.94;90.69;100126.83;106145;1289;60135;-75
2022/10/30 02:31:41;;;;;;;11.90;2.50;;;;;;;9.91;90.57;100131.13;106133;1289;72781;-75
2022/10/30 02:34:28;;;;;;;8.80;2.10;;;;;;;9.87;90.87;100133.13;105765;1291;66565;-75
2022/10/30 02:37:17;;;;;;;7.20;2.00;;;;;;;9.83;90.43;100134.00;105624;1296;72483;-75
2022/10/30 02:40:08;;;;;;;8.40;1.90;;;;;;;9.79;90.99;100132.71;105773;1294;58168;-74
2022/10/30 02:42:56;;;;;;;10.90;2.40;;;;;;;9.74;91.36;100123.31;105758;1294;60029;-74
2022/10/30 02:45:50;;;;;;;8.50;2.50;;;;;;;9.70;91.36;100130.14;104955;1293;1002578;-73
2022/10/30 02:48:39;;;;;;;8.70;2.30;;;;;;;9.64;91.96;100129.33;105619;1294;67698;-74
2022/10/30 02:51:29;;;;;;;10.30;2.50;;;;;;;9.58;91.96;100132.23;105705;1293;72787;-74
2022/10/30 02:54:17;;;;;;;12.50;2.40;;;;;;;9.51;92.45;100129.70;105744;1295;57963;-74
2022/10/30 02:57:05;;;;;;;10.70;2.20;;;;;;;9.46;92.72;100124.65;105698;1293;60384;-75
2022/10/30 02:59:53;;;;;;;12.60;2.40;;;;;;;9.41;93.36;100116.30;105767;1293;74343;-75
2022/10/30 03:02:41;;;;;;;11.70;2.50;;;;;;;9.37;93.24;100127.41;105746;1294;66226;-75
2022/10/30 03:05:30;;;;;;;10.60;2.80;;;;;;;9.34;93.58;100134.52;105753;1294;72792;-75
2022/10/30 03:08:18;;;;;;;9.90;2.20;;;;;;;9.31;93.52;100131.16;105705;1287;59508;-74
2022/10/30 03:11:10;;;;;;;10.70;2.50;;;;;;;9.28;94.09;100132.61;105746;1294;60102;-74
2022/10/30 03:13:58;;;;;;;8.70;2.30;;;;;;;9.28;94.08;100140.13;106130;1288;73852;-75
2022/10/30 03:16:46;;;;;;;10.40;2.10;;;;;;;9.27;94.33;100139.46;106151;1288;67807;-74
2022/10/30 03:19:35;;;;;;;11.40;2.20;;;;;;;9.25;94.80;100134.08;106023;1296;73970;-75
2022/10/30 03:22:23;;;;;;;10.60;2.80;;;;;;;9.22;95.19;100125.27;106145;1289;57694;-74
2022/10/30 03:25:14;;;;;;;13.40;2.50;;;;;;;9.18;95.34;100119.84;106030;1289;59266;-74
2022/10/30 03:28:01;;;;;;;13.70;3.80;;;;;;;9.15;95.49;100131.61;106138;1289;72872;-74
2022/10/30 03:30:51;;;;;;;15.40;2.70;;;;;;;9.13;95.82;100135.95;106158;1289;68128;-73
2022/10/30 03:33:40;;;;;;;9.20;2.10;;;;;;;9.11;95.89;100137.55;106032;1288;72426;-73
2022/10/30 03:36:28;;;;;;;10.40;2.30;;;;;;;9.10;96.34;100135.11;106107;1289;60352;-74
2022/10/30 03:39:15;;;;;;;8.90;2.70;;;;;;;9.09;96.18;100139.98;105833;1287;60055;-75
2022/10/30 03:42:04;;;;;;;9.50;2.50;;;;;;;9.09;96.22;100132.22;105737;1295;72903;-74
2022/10/30 03:44:54;;;;;;;17.30;3.30;;;;;;;9.08;96.38;100134.96;105835;1285;68588;-75
2022/10/30 03:47:42;;;;;;;11.60;2.60;;;;;;;9.06;96.44;100129.44;105710;1292;72266;-76
2022/10/30 03:50:30;;;;;;;9.70;2.40;;;;;;;9.05;96.26;100149.31;105816;1290;58768;-76
2022/10/30 03:53:17;;;;;;;11.60;2.60;;;;;;;9.03;96.65;100161.27;105722;1294;60259;-76
2022/10/30 03:56:09;;;;;;;7.30;2.10;;;;;;;9.01;96.74;100156.85;105722;1293;73228;-76
2022/10/30 03:59:02;;;;;;;11.80;3.00;;;;;;;8.97;96.97;100147.70;105789;1287;68764;-75
2022/10/30 04:01:50;;;;;;;10.20;2.50;;;;;;;8.95;97.05;100143.06;105720;1294;73182;-75
2022/10/30 04:04:39;;;;;;;10.70;2.60;;;;;;;8.93;97.30;100157.73;105696;1295;59422;-76
2022/10/30 04:07:28;;;;;;;11.00;2.60;;;;;;;8.91;97.53;100156.08;105724;1291;58703;-76
2022/10/30 04:10:16;;;;;;;11.90;3.00;;;;;;;8.90;97.50;100152.98;105836;1288;73327;-75
2022/10/30 04:13:12;;;;;;;9.30;2.90;;;;;;;8.90;98.08;100146.47;106007;1287;67758;-76
2022/10/30 04:16:05;;;;;;;10.10;2.80;;;;;;;8.91;97.85;100145.88;105929;1290;73035;-75
2022/10/30 04:18:53;;;;;;;9.30;2.40;;;;;;;8.90;98.01;100144.16;106070;1282;187148;-75
2022/10/30 04:21:42;;;;;;;9.60;2.70;;;;;;;8.89;98.07;100147.57;106162;1281;60371;-76
2022/10/30 04:24:31;;;;;;;7.30;2.40;;;;;;;8.89;98.13;100147.38;106094;1288;72986;-76
2022/10/30 04:27:19;;;;;;;9.20;2.60;;;;;;;8.91;98.11;100146.76;106164;1282;66848;-76
2022/10/30 04:30:10;;;;;;;10.50;2.30;;;;;;;8.92;98.03;100152.28;106198;1285;71530;-75
2022/10/30 04:32:59;;;;;;;9.10;2.50;;;;;;;8.94;98.06;100144.73;105991;1282;60330;-75
2022/10/30 04:35:48;;;;;;;9.70;2.50;;;;;;;8.95;98.10;100142.36;106058;1289;59359;-75
2022/10/30 04:38:37;;;;;;;9.70;2.90;;;;;;;8.95;98.15;100142.88;106011;1289;74051;-75
2022/10/30 04:41:26;;;;;;;11.50;3.00;;;;;;;8.95;98.12;100151.23;106068;1292;68313;-75
2022/10/30 04:44:26;;;;;;;9.60;2.50;;;;;;;8.93;98.43;100154.70;106047;1294;73761;-76
2022/10/30 04:47:16;;;;;;;11.40;2.50;;;;;;;8.93;98.35;100157.23;106033;1291;59298;-76
2022/10/30 04:50:05;;;;;;;11.60;2.80;;;;;;;8.92;98.58;100160.08;106006;1289;60208;-75
2022/10/30 04:53:15;;;;;;;11.20;2.50;;;;;;;8.93;98.36;100158.11;106088;1281;74065;-75
2022/10/30 04:56:07;;;;;;;11.10;2.90;;;;;;;8.93;98.32;100161.43;106009;1282;67522;-75
2022/10/30 04:58:56;;;;;;;9.90;2.80;;;;;;;8.94;98.52;100162.28;105992;1285;70202;-74
2022/10/30 05:01:44;;;;;;;10.80;2.80;;;;;;;8.95;98.74;100160.75;106107;1289;59341;-75
2022/10/30 05:04:32;;;;;;;10.80;2.80;;;;;;;8.96;98.30;100160.55;106140;1288;60205;-76
2022/10/30 05:07:21;;;;;;;8.40;2.70;;;;;;;8.96;98.69;100163.34;106013;1281;71382;-75
2022/10/30 05:10:17;;;;;;;10.80;3.00;;;;;;;8.97;98.54;100162.22;105994;1281;68613;-75
2022/10/30 05:13:05;;;;;;;10.90;3.20;;;;;;;8.98;98.41;100149.96;106091;1287;71499;-75
2022/10/30 05:15:54;;;;;;;9.30;2.70;;;;;;;8.99;98.81;100150.20;106094;1289;60574;-76
2022/10/30 05:18:42;;;;;;;10.60;3.10;;;;;;;9.03;99.00;100156.14;106070;1288;60199;-76
2022/10/30 05:21:29;;;;;;;11.10;2.70;;;;;;;9.05;98.57;100158.64;105992;1284;72714;-75
2022/10/30 05:24:18;;;;;;;9.30;2.70;;;;;;;9.09;98.96;100157.88;106114;1289;68103;-75
2022/10/30 05:27:06;;;;;;;10.30;2.60;;;;;;;9.12;98.71;100154.98;105832;1287;73400;-75
2022/10/30 05:29:54;;;;;;;10.30;3.20;;;;;;;9.13;98.24;100154.74;106065;1289;58727;-76
2022/10/30 05:32:41;;;;;;;10.60;2.70;;;;;;;9.13;98.26;100155.80;106073;1297;60265;-75
2022/10/30 05:35:31;;;;;;;10.20;3.30;;;;;;;9.13;98.17;100158.27;105986;1293;72750;-75
2022/10/30 05:38:19;;;;;;;7.90;2.90;;;;;;;9.13;98.73;100152.25;106005;1292;67746;-76
2022/10/30 05:41:07;;;;;;;9.80;3.30;;;;;;;9.14;98.85;100143.70;106054;1296;73488;-75
2022/10/30 05:43:55;;;;;;;9.40;2.90;;;;;;;9.14;98.66;100138.55;106014;1296;58338;-75
2022/10/30 05:46:45;;;;;;;9.70;3.20;;;;;;;9.16;99.02;100136.67;106029;1289;59199;-74
2022/10/30 05:49:59;;;;;;;10.50;2.70;;;;;;;9.19;99.41;100136.45;106106;1273;71953;-74
2022/10/30 05:52:47;;;;;;;14.30;3.60;;;;;;;9.22;99.06;100138.05;105984;1289;67759;-75
2022/10/30 05:55:35;;;;;;;11.10;2.60;;;;;;;9.26;99.13;100142.17;106021;1290;74380;-76
2022/10/30 05:58:29;;;;;;;10.80;3.00;;;;;;;9.31;98.99;100142.52;105982;1284;60403;-76
2022/10/30 06:01:18;;;;;;;7.90;2.50;;;;;;;9.36;98.77;100144.41;106003;1284;61270;-75
2022/10/30 06:04:08;;;;;;;12.00;3.00;;;;;;;9.42;98.68;100144.25;105988;1290;71340;-76
2022/10/30 06:06:56;;;;;;;10.40;2.70;;;;;;;9.46;98.35;100145.52;106081;1288;69107;-76
2022/10/30 06:09:44;;;;;;;9.80;2.50;;;;;;;9.53;98.15;100143.05;106011;1289;72677;-76
2022/10/30 06:12:43;;;;;;;9.40;3.30;;;;;;;9.58;97.92;100146.78;106117;1289;57247;-74
2022/10/30 06:15:55;;;;;;;11.00;4.40;;;;;;;9.64;97.46;100148.52;106108;1288;59814;-76
2022/10/30 06:18:44;;;;;;;8.60;3.00;;;;;;;9.70;97.32;100157.98;105915;1289;74309;-76
2022/10/30 06:21:33;;;;;;;7.90;2.60;;;;;;;9.76;97.15;100166.43;105961;1285;69194;-74
2022/10/30 06:24:45;;;;;;;9.80;2.60;;;;;;;9.82;96.78;100161.15;106012;1289;72693;-77
2022/10/30 06:27:59;;;;;;;9.30;2.90;;;;;;;9.89;96.71;100152.86;106064;1283;60213;-75
2022/10/30 06:30:50;;;;;;;11.30;2.70;;;;;;;9.98;96.34;100157.56;105946;1284;61088;-75
2022/10/30 06:33:39;;;;;;;9.50;3.00;;;;;;;10.06;96.18;100158.38;106059;1287;73001;-76
2022/10/30 06:36:27;;;;;;;8.90;3.10;;;;;;;10.14;95.86;100157.77;106047;1287;68632;-76
2022/10/30 06:39:15;;;;;;;8.70;2.50;;;;;;;10.20;95.58;100156.73;105255;1289;1002039;-76
2022/10/30 06:42:25;;;;;;;9.10;3.20;;;;;;;10.27;95.19;100158.95;105935;1292;59550;-76
2022/10/30 06:45:25;;;;;;;9.60;3.30;;;;;;;10.34;94.97;100166.23;106020;1292;60152;-76
2022/10/30 06:48:13;;;;;;;11.30;3.50;;;;;;;10.36;94.55;100166.41;105945;1288;74361;-77
2022/10/30 06:51:06;;;;;;;11.10;3.70;;;;;;;10.41;94.67;100171.05;106093;1288;67620;-76
2022/10/30 06:53:57;;;;;;;10.00;2.70;;;;;;;10.44;94.50;100170.98;105998;1292;70527;-75
2022/10/30 06:57:03;;;;;;;11.40;3.20;;;;;;;10.47;94.67;100168.98;106084;1289;60614;-75
2022/10/30 07:00:19;;;;;;;11.40;4.00;;;;;;;10.53;94.61;100172.81;106045;1288;60565;-76
2022/10/30 07:03:40;;;;;;;11.20;3.80;;;;;;;10.62;94.51;100170.21;105985;1292;71721;-75
2022/10/30 07:06:28;;;;;;;10.80;3.90;;;;;;;10.69;94.49;100175.88;105882;1293;68015;-77
2022/10/30 07:09:19;;;;;;;11.70;3.80;;;;;;;10.76;94.44;100173.68;105865;1294;72476;-76
2022/10/30 07:12:08;;;;;;;10.90;3.60;;;;;;;10.86;94.32;100168.21;105973;1289;60376;-77
2022/10/30 07:15:15;;;;;;;12.30;4.20;;;;;;;10.95;94.22;100171.20;106122;1289;60249;-75
2022/10/30 07:18:21;;;;;;;12.00;4.00;;;;;;;11.06;94.07;100183.10;105965;1291;73125;-76
2022/10/30 07:21:13;;;;;;;9.60;3.90;;;;;;;11.13;93.81;100191.65;106032;1289;68673;-76
2022/10/30 07:24:01;;;;;;;16.10;4.70;;;;;;;11.18;93.78;100194.61;105982;1291;72347;-76
2022/10/30 07:26:55;;;;;;;13.30;4.90;;;;;;;11.26;93.61;100195.96;106139;1284;59406;-76
2022/10/30 07:29:59;;;;;;;11.10;4.90;;;;;;;11.38;93.31;100199.30;106162;1287;61203;-77
2022/10/30 07:33:00;;;;;;;10.40;4.50;;;;;;;11.50;92.88;100210.44;106353;1287;72871;-76
2022/10/30 07:36:13;;;;;;;12.40;3.60;;;;;;;11.67;92.43;100205.88;106185;1289;68926;-75
2022/10/30 07:39:07;;;;;;;11.10;3.90;;;;;;;11.89;91.37;100204.10;105939;1296;73606;-76
2022/10/30 07:41:59;;;;;;;10.10;3.60;;;;;;;12.10;90.80;100205.98;106085;1291;57217;-75
2022/10/30 07:45:07;;;;;;;13.20;4.50;;;;;;;12.26;89.57;100200.93;106146;1278;60094;-76
2022/10/30 07:48:19;;;;;;;9.40;3.70;;;;;;;12.32;88.33;100203.87;106116;1289;71840;-77
2022/10/30 07:51:18;;;;;;;10.00;3.20;;;;;;;12.41;88.34;100199.73;105865;1291;65480;-75
2022/10/30 07:54:09;;;;;;;10.70;3.60;;;;;;;12.50;87.29;100201.52;105904;1290;73863;-76
2022/10/30 07:56:57;;;;;;;10.00;3.50;;;;;;;12.58;87.04;100200.77;105960;1288;57841;-77
2022/10/30 08:00:16;;;;;;;10.90;3.70;;;;;;;12.78;87.19;100197.88;105888;1296;60340;-73
2022/10/30 08:03:08;;;;;;;11.20;4.00;;;;;;;13.49;85.34;100193.09;105934;1290;72700;-74
2022/10/30 08:06:15;;;;;;;12.20;4.60;;;;;;;14.28;81.38;100192.25;105996;1286;67535;-73
2022/10/30 08:09:03;;;;;;;9.00;3.30;;;;;;;14.77;77.94;100189.27;106077;1289;72238;-73
2022/10/30 08:11:52;;;;;;;9.60;3.10;;;;;;;14.83;77.07;100189.73;105936;1284;57225;-75
2022/10/30 08:14:41;;;;;;;10.20;3.30;;;;;;;14.78;76.31;100192.67;106103;1295;60061;-74
2022/10/30 08:17:29;;;;;;;10.30;3.30;;;;;;;14.91;76.19;100192.09;106133;1295;73863;-76
2022/10/30 08:20:20;;;;;;;10.90;3.40;;;;;;;14.93;74.93;100194.16;105927;1291;68674;-76
2022/10/30 08:23:09;;;;;;;11.10;3.60;;;;;;;14.70;74.64;100198.44;105937;1289;72362;-77
2022/10/30 08:26:00;;;;;;;10.20;3.40;;;;;;;14.58;75.30;100197.62;106067;1292;57776;-77
2022/10/30 08:28:48;;;;;;;10.30;3.00;;;;;;;14.52;76.02;100194.04;106041;1288;58029;-76
2022/10/30 08:31:36;;;;;;;10.30;3.70;;;;;;;14.53;75.96;100192.13;106099;1288;71369;-75
2022/10/30 08:34:52;;;;;;;8.20;3.50;;;;;;;14.68;75.81;100198.86;106048;1291;67881;-75
2022/10/30 08:37:42;;;;;;;9.30;3.40;;;;;;;14.69;74.97;100194.83;105806;1292;72667;-76
2022/10/30 08:40:30;;;;;;;8.70;3.10;;;;;;;14.78;74.77;100191.33;106024;1292;57170;-75
2022/10/30 08:43:25;;;;;;;9.50;3.30;;;;;;;15.00;74.34;100193.49;105932;1292;60091;-75
2022/10/30 08:46:15;;;;;;;11.60;3.00;;;;;;;15.17;73.10;100189.79;105950;1287;72846;-76
2022/10/30 08:49:03;;;;;;;10.10;3.10;;;;;;;15.20;72.22;100191.66;105870;1286;68127;-75
2022/10/30 08:51:55;;;;;;;11.80;3.20;;;;;;;15.17;72.28;100195.01;105994;1289;72594;-75
2022/10/30 08:54:47;;;;;;;11.10;3.20;;;;;;;15.12;72.32;100191.88;105874;1295;59270;-76
2022/10/30 08:57:37;;;;;;;9.80;3.00;;;;;;;15.09;71.87;100195.37;105940;1289;58919;-76
2022/10/30 09:00:26;;;;;;;10.20;3.60;;;;;;;15.09;71.94;100192.52;106028;1289;73352;-75
2022/10/30 09:03:34;;;;;;;12.20;3.60;;;;;;;15.09;71.47;100201.44;105924;1292;67711;-75
2022/10/30 09:06:50;;;;;;;13.50;4.40;;;;;;;14.94;71.75;100207.64;105993;1292;73455;-76
2022/10/30 09:09:44;;;;;;;10.90;3.20;;;;;;;14.87;72.43;100203.86;106135;1288;58102;-76
2022/10/30 09:12:32;;;;;;;7.80;3.10;;;;;;;14.79;72.58;100199.58;106022;1298;60245;-75
2022/10/30 09:15:21;;;;;;;9.70;3.10;;;;;;;14.70;72.78;100201.37;106038;1296;71749;-76
2022/10/30 09:18:13;;;;;;;10.90;3.20;;;;;;;14.62;73.02;100201.98;105832;1289;67507;-76
2022/10/30 09:21:02;;;;;;;9.40;2.90;;;;;;;14.64;73.56;100210.78;105948;1292;72677;-75
2022/10/30 09:23:56;;;;;;;9.70;3.20;;;;;;;14.60;72.92;100214.39;105998;1284;57276;-76
2022/10/30 09:26:55;;;;;;;9.30;3.00;;;;;;;14.51;73.59;100217.35;106104;1288;61121;-76
2022/10/30 09:29:47;;;;;;;11.10;3.30;;;;;;;14.45;73.78;100221.08;106072;1295;72650;-76
2022/10/30 09:32:57;;;;;;;9.50;3.30;;;;;;;14.44;74.09;100224.89;105899;1295;69336;-75
2022/10/30 09:36:04;;;;;;;7.70;2.30;;;;;;;14.43;74.43;100232.89;105942;1294;71348;-76
2022/10/30 09:38:54;;;;;;;11.20;3.30;;;;;;;14.38;74.36;100228.63;106017;1290;57528;-75
2022/10/30 09:42:04;;;;;;;10.90;3.10;;;;;;;14.36;74.95;100233.52;106046;1288;58079;-75
2022/10/30 09:45:25;;;;;;;10.00;3.50;;;;;;;14.29;74.72;100224.81;105991;1295;73503;-74
2022/10/30 09:48:36;;;;;;;11.40;3.60;;;;;;;14.24;74.98;100221.75;106132;1288;68713;-77
2022/10/30 09:52:05;;;;;;;10.10;3.10;;;;;;;14.21;75.37;100214.83;106016;1292;72634;-76
2022/10/30 09:55:32;;;;;;;9.30;3.30;;;;;;;14.25;75.63;100217.88;106005;1287;58035;-75
2022/10/30 09:58:51;;;;;;;11.70;3.70;;;;;;;14.26;75.58;100224.17;106015;1292;58737;-76
2022/10/30 10:01:48;;;;;;;10.80;3.60;;;;;;;14.23;75.72;100220.21;105986;1292;73642;-76
2022/10/30 10:04:50;;;;;;;7.80;3.30;;;;;;;14.11;75.75;100220.44;105937;1290;68825;-76
2022/10/30 10:08:09;;;;;;;8.40;3.20;;;;;;;13.95;76.22;100223.80;106041;1287;72383;-76
2022/10/30 10:11:25;;;;;;;10.00;3.60;;;;;;;13.84;76.75;100224.29;105972;1291;58013;-76
2022/10/30 10:14:16;;;;;;;9.30;3.00;;;;;;;13.74;77.03;100233.85;105998;1292;61621;-77
2022/10/30 10:17:23;;;;;;;11.30;3.40;;;;;;;13.66;77.57;100234.86;106036;1289;72215;-75
2022/10/30 10:20:42;;;;;;;13.00;3.70;;;;;;;13.65;77.87;100236.41;105986;1288;68813;-75
2022/10/30 10:23:38;;;;;;;11.60;3.80;;;;;;;13.68;78.09;100225.13;106008;1292;71072;-76
2022/10/30 10:26:51;;;;;;;11.90;4.10;;;;;;;13.72;78.27;100222.44;105985;1299;59001;-76
2022/10/30 10:30:10;;;;;;;10.70;3.50;;;;;;;13.74;78.15;100217.83;105880;1291;61348;-77
2022/10/30 10:34:25;;;;;;;8.80;3.40;;;;;;;13.74;78.30;100224.17;106065;1289;74131;-77
2022/10/30 10:37:48;;;;;;;11.30;3.30;;;;;;;13.73;78.21;100217.92;105929;1288;68007;-75
2022/10/30 10:41:14;;;;;;;11.20;3.60;;;;;;;13.69;78.88;100222.68;106044;1289;73471;-76
2022/10/30 10:44:35;;;;;;;9.70;3.60;;;;;;;13.65;78.52;100223.91;105600;1298;59300;-77
2022/10/30 10:47:50;;;;;;;12.60;4.20;;;;;;;13.59;78.62;100227.44;105503;1302;58650;-79
2022/10/30 10:50:55;;;;;;;13.30;5.00;;;;;;;13.55;78.93;100226.55;105629;1293;72937;-76
2022/10/30 10:54:05;;;;;;;15.90;4.90;;;;;;;13.51;78.92;100226.98;105549;1304;67211;-77
2022/10/30 10:56:54;;;;;;;17.20;6.20;;;;;;;13.45;79.41;100225.72;105603;1295;72458;-78
2022/10/30 10:59:49;;;;;;;15.60;5.70;;;;;;;13.43;79.64;100222.28;105624;1295;58942;-76
2022/10/30 11:03:01;;;;;;;17.90;5.40;;;;;;;13.44;79.56;100223.20;105570;1296;58940;-76
2022/10/30 11:06:27;;;;;;;12.20;4.60;;;;;;;13.48;79.81;100224.52;105609;1288;74921;-77
2022/10/30 11:09:18;;;;;;;13.90;4.50;;;;;;;13.53;79.49;100223.92;105451;1301;69438;-76
2022/10/30 11:12:07;;;;;;;14.30;4.50;;;;;;;13.58;79.47;100221.63;105580;1293;73786;-76
2022/10/30 11:15:02;;;;;;;13.10;4.30;;;;;;;13.63;79.17;100224.08;105619;1297;57673;-77
2022/10/30 11:17:59;;;;;;;12.10;3.90;;;;;;;13.65;78.92;100227.14;105515;1291;59071;-77
2022/10/30 11:20:58;;;;;;;13.10;3.90;;;;;;;13.58;78.72;100229.48;105724;1290;72970;-75
2022/10/30 11:23:48;;;;;;;14.10;4.30;;;;;;;13.50;79.12;100230.95;106052;1289;68624;-76
2022/10/30 11:26:36;;;;;;;11.80;4.00;;;;;;;13.48;79.25;100223.98;105902;1284;73566;-76
2022/10/30 11:29:28;;;;;;;11.20;3.80;;;;;;;13.47;79.40;100224.83;106055;1289;58325;-77
2022/10/30 11:32:25;;;;;;;12.70;4.10;;;;;;;13.43;79.31;100225.44;106067;1287;61140;-77
2022/10/30 11:35:19;;;;;;;10.60;3.90;;;;;;;13.42;79.61;100226.78;105910;1287;71785;-77
2022/10/30 11:38:20;;;;;;;11.60;3.70;;;;;;;13.45;79.51;100226.43;106002;1288;66689;-77
2022/10/30 11:41:11;;;;;;;13.50;3.80;;;;;;;13.44;79.66;100227.15;106026;1295;73405;-77
2022/10/30 11:43:59;;;;;;;13.00;4.20;;;;;;;13.48;79.44;100232.06;106022;1286;58597;-77
2022/10/30 11:46:47;;;;;;;11.40;3.70;;;;;;;13.54;79.15;100229.05;106040;1289;60012;-77
2022/10/30 11:49:40;;;;;;;10.50;3.30;;;;;;;13.58;79.10;100221.02;105986;1297;71392;-76
2022/10/30 11:52:37;;;;;;;10.00;3.20;;;;;;;13.65;78.92;100220.56;106081;1289;66604;-76
2022/10/30 11:55:48;;;;;;;10.20;3.30;;;;;;;13.67;78.82;100216.10;105971;1297;73506;-77
2022/10/30 11:58:43;;;;;;;11.30;3.40;;;;;;;13.70;78.56;100218.89;105986;1287;58822;-77
2022/10/30 12:01:35;;;;;;;11.40;4.00;;;;;;;13.69;78.49;100216.77;105958;1287;61076;-77
2022/10/30 12:04:26;;;;;;;10.40;3.90;;;;;;;13.70;78.47;100207.61;105962;1296;73594;-77
2022/10/30 12:07:32;;;;;;;12.80;3.70;;;;;;;13.72;78.52;100206.53;106049;1289;67542;-76
2022/10/30 12:10:26;;;;;;;10.80;3.70;;;;;;;13.72;78.55;100208.55;105973;1289;72728;-76
2022/10/30 12:13:20;;;;;;;10.10;4.10;;;;;;;13.69;78.52;100211.52;106043;1289;57955;-77
2022/10/30 12:16:07;;;;;;;11.20;3.70;;;;;;;13.65;78.39;100206.33;105983;1292;60144;-76
2022/10/30 12:19:02;;;;;;;11.00;3.70;;;;;;;13.60;78.67;100207.27;106059;1289;72916;-76
2022/10/30 12:21:57;;;;;;;9.90;3.60;;;;;;;13.57;78.85;100201.29;106064;1294;67519;-79
2022/10/30 12:24:45;;;;;;;10.80;3.50;;;;;;;13.54;78.70;100205.32;105961;1293;72421;-76
2022/10/30 12:27:37;;;;;;;11.60;3.40;;;;;;;13.51;78.97;100200.73;105999;1291;59596;-77
2022/10/30 12:30:27;;;;;;;11.30;3.90;;;;;;;13.51;78.92;100203.40;106049;1294;60198;-76
2022/10/30 12:33:19;;;;;;;10.00;3.20;;;;;;;13.52;79.06;100206.53;105985;1283;73042;-77
2022/10/30 12:36:24;;;;;;;11.00;3.90;;;;;;;13.52;78.89;100208.67;106016;1284;69277;-76
2022/10/30 12:39:43;;;;;;;12.20;3.40;;;;;;;13.53;79.20;100204.34;105930;1291;73154;-76
2022/10/30 12:42:39;;;;;;;9.30;3.80;;;;;;;13.55;79.32;100208.59;105926;1292;57695;-76
2022/10/30 12:45:36;;;;;;;13.00;4.20;;;;;;;13.52;79.13;100206.92;105990;1283;61227;-76
2022/10/30 12:48:32;;;;;;;10.20;4.30;;;;;;;13.51;79.56;100207.70;105992;1289;72760;-77
2022/10/30 12:52:07;;;;;;;12.90;4.20;;;;;;;13.51;79.69;100202.33;105935;1292;67557;-77
2022/10/30 12:55:15;;;;;;;13.30;4.60;;;;;;;13.52;79.93;100194.05;105621;1296;72601;-75
2022/10/30 12:58:44;;;;;;;17.20;4.90;;;;;;;13.52;79.82;100192.83;105546;1293;57170;-77
2022/10/30 13:01:42;;;;;;;12.30;4.70;;;;;;;13.48;79.42;100193.34;105559;1298;60295;-77
2022/10/30 13:04:40;;;;;;;9.60;3.60;;;;;;;13.43;79.53;100191.63;105507;1299;73208;-76
2022/10/30 13:07:54;;;;;;;9.60;3.80;;;;;;;13.39;79.76;100191.79;105601;1296;68470;-76
2022/10/30 13:11:03;;;;;;;10.50;3.60;;;;;;;13.36;79.85;100197.80;105509;1297;71212;-75
2022/10/30 13:13:53;;;;;;;11.20;3.80;;;;;;;13.31;79.70;100198.34;105527;1298;58066;-76
2022/10/30 13:16:41;;;;;;;10.00;4.10;;;;;;;13.28;79.94;100192.02;105505;1297;60293;-77
2022/10/30 13:19:29;;;;;;;11.50;3.80;;;;;;;13.25;79.89;100188.91;105615;1290;72685;-76
2022/10/30 13:22:43;;;;;;;9.80;3.50;;;;;;;13.22;80.07;100191.98;105610;1297;68738;-75
2022/10/30 13:25:47;;;;;;;11.40;3.60;;;;;;;13.17;80.01;100192.76;105555;1292;73449;-75
2022/10/30 13:29:20;;;;;;;9.80;3.70;;;;;;;13.13;80.33;100191.22;105645;1295;57324;-76